sensor_id;sensor_type;location;lat;lon;timestamp;pressure;altitude;pressure_sealevel;temperature;humidity
75290;BME280;63883;48.996;20.804;2023-09-12T00:02:06;96536.00;;;13.47;100.00
75290;BME280;63883;48.996;20.804;2023-09-12T00:04:32;96535.00;;;13.51;100.00
75290;BME280;63883;48.996;20.804;2023-09-12T00:06:58;96540.91;;;13.53;100.00
75290;BME280;63883;48.996;20.804;2023-09-12T00:09:23;96541.88;;;13.51;100.00
75290;BME280;63883;48.996;20.804;2023-09-12T00:11:49;96539.41;;;13.48;100.00
75290;BME280;63883;48.996;20.804;2023-09-12T00:14:16;96538.66;;;13.46;100.00
75290;BME280;63883;48.996;20.804;2023-09-12T00:16:42;96543.00;;;13.44;100.00
75290;BME280;63883;48.996;20.804;2023-09-12T00:19:08;96541.31;;;13.43;100.00
75290;BME280;63883;48.996;20.804;2023-09-12T00:21:33;96541.38;;;13.41;100.00
75290;BME280;63883;48.996;20.804;2023-09-12T00:23:59;96544.03;;;13.40;100.00
75290;BME280;63883;48.996;20.804;2023-09-12T00:26:24;96537.94;;;13.42;100.00
75290;BME280;63883;48.996;20.804;2023-09-12T00:28:50;96531.06;;;13.43;100.00
75290;BME280;63883;48.996;20.804;2023-09-12T00:31:16;96538.91;;;13.40;100.00
75290;BME280;63883;48.996;20.804;2023-09-12T00:33:42;96538.91;;;13.40;100.00
75290;BME280;63883;48.996;20.804;2023-09-12T00:36:07;96540.69;;;13.38;100.00
75290;BME280;63883;48.996;20.804;2023-09-12T00:38:33;96551.03;;;13.35;100.00
75290;BME280;63883;48.996;20.804;2023-09-12T00:40:58;96541.75;;;13.32;100.00
75290;BME280;63883;48.996;20.804;2023-09-12T00:43:24;96541.75;;;13.32;100.00
75290;BME280;63883;48.996;20.804;2023-09-12T00:45:50;96544.38;;;13.31;100.00
75290;BME280;63883;48.996;20.804;2023-09-12T00:48:16;96539.25;;;13.31;100.00
75290;BME280;63883;48.996;20.804;2023-09-12T00:50:44;96546.38;;;13.22;100.00
75290;BME280;63883;48.996;20.804;2023-09-12T00:53:11;96550.06;;;13.15;100.00
75290;BME280;63883;48.996;20.804;2023-09-12T00:55:40;96543.50;;;13.08;100.00
75290;BME280;63883;48.996;20.804;2023-09-12T00:58:08;96536.78;;;13.04;100.00
75290;BME280;63883;48.996;20.804;2023-09-12T01:00:34;96540.28;;;13.03;100.00
75290;BME280;63883;48.996;20.804;2023-09-12T01:03:00;96532.66;;;13.02;100.00
75290;BME280;63883;48.996;20.804;2023-09-12T01:05:26;96529.34;;;12.98;100.00
75290;BME280;63883;48.996;20.804;2023-09-12T01:07:52;96532.00;;;12.97;100.00
75290;BME280;63883;48.996;20.804;2023-09-12T01:10:18;96532.16;;;12.92;100.00
75290;BME280;63883;48.996;20.804;2023-09-12T01:12:44;96526.31;;;12.88;100.00
75290;BME280;63883;48.996;20.804;2023-09-12T01:15:10;96528.94;;;12.87;100.00
75290;BME280;63883;48.996;20.804;2023-09-12T01:17:41;96528.16;;;12.85;100.00
75290;BME280;63883;48.996;20.804;2023-09-12T01:20:08;96526.53;;;12.82;100.00
75290;BME280;63883;48.996;20.804;2023-09-12T01:28:29;96534.31;;;12.79;100.00
75290;BME280;63883;48.996;20.804;2023-09-12T01:30:58;96530.94;;;12.79;100.00
75290;BME280;63883;48.996;20.804;2023-09-12T01:33:26;96531.03;;;12.76;100.00
75290;BME280;63883;48.996;20.804;2023-09-12T01:35:52;96531.16;;;12.73;100.00
75290;BME280;63883;48.996;20.804;2023-09-12T01:38:18;96535.44;;;12.72;100.00
75290;BME280;63883;48.996;20.804;2023-09-12T01:40:49;96529.59;;;12.69;100.00
75290;BME280;63883;48.996;20.804;2023-09-12T01:43:18;96541.63;;;12.67;100.00
75290;BME280;63883;48.996;20.804;2023-09-12T01:45:53;96531.59;;;12.61;100.00
75290;BME280;63883;48.996;20.804;2023-09-12T01:48:22;96541.00;;;12.60;100.00
75290;BME280;63883;48.996;20.804;2023-09-12T01:50:49;96547.06;;;12.58;100.00
75290;BME280;63883;48.996;20.804;2023-09-12T01:53:16;96538.59;;;12.56;100.00
75290;BME280;63883;48.996;20.804;2023-09-12T01:55:43;96541.16;;;12.56;100.00
75290;BME280;63883;48.996;20.804;2023-09-12T01:58:11;96543.88;;;12.51;100.00
75290;BME280;63883;48.996;20.804;2023-09-12T02:00:38;96548.34;;;12.46;100.00
75290;BME280;63883;48.996;20.804;2023-09-12T02:03:04;96550.16;;;12.42;100.00
75290;BME280;63883;48.996;20.804;2023-09-12T02:05:29;96546.94;;;12.37;100.00
75290;BME280;63883;48.996;20.804;2023-09-12T02:07:55;96547.06;;;12.33;100.00
75290;BME280;63883;48.996;20.804;2023-09-12T02:10:21;96545.47;;;12.30;100.00
75290;BME280;63883;48.996;20.804;2023-09-12T02:12:47;96551.56;;;12.26;100.00
75290;BME280;63883;48.996;20.804;2023-09-12T02:15:13;96547.50;;;12.21;100.00
75290;BME280;63883;48.996;20.804;2023-09-12T02:17:39;96536.66;;;12.14;100.00
75290;BME280;63883;48.996;20.804;2023-09-12T02:20:07;96538.44;;;12.12;100.00
75290;BME280;63883;48.996;20.804;2023-09-12T02:22:33;96539.38;;;12.09;100.00
75290;BME280;63883;48.996;20.804;2023-09-12T02:24:59;96544.53;;;12.08;100.00
75290;BME280;63883;48.996;20.804;2023-09-12T02:27:25;96548.06;;;12.04;100.00
75290;BME280;63883;48.996;20.804;2023-09-12T02:29:50;96536.28;;;12.00;100.00
75290;BME280;63883;48.996;20.804;2023-09-12T02:32:16;96543.97;;;12.00;100.00
75290;BME280;63883;48.996;20.804;2023-09-12T02:34:42;96535.50;;;11.98;100.00
75290;BME280;63883;48.996;20.804;2023-09-12T02:37:07;96539.81;;;11.96;100.00
75290;BME280;63883;48.996;20.804;2023-09-12T02:39:33;96540.72;;;11.95;100.00
75290;BME280;63883;48.996;20.804;2023-09-12T02:41:59;96541.66;;;11.92;100.00
75290;BME280;63883;48.996;20.804;2023-09-12T02:44:24;96544.28;;;11.89;100.00
75290;BME280;63883;48.996;20.804;2023-09-12T02:46:50;96534.16;;;11.88;100.00
75290;BME280;63883;48.996;20.804;2023-09-12T02:49:16;96532.47;;;11.87;100.00
75290;BME280;63883;48.996;20.804;2023-09-12T02:51:42;96533.31;;;11.87;100.00
75290;BME280;63883;48.996;20.804;2023-09-12T02:54:07;96529.13;;;11.85;100.00
75290;BME280;63883;48.996;20.804;2023-09-12T02:56:34;96534.31;;;11.82;100.00
75290;BME280;63883;48.996;20.804;2023-09-12T02:58:59;96543.00;;;11.78;100.00
75290;BME280;63883;48.996;20.804;2023-09-12T03:01:25;96546.44;;;11.77;100.00
75290;BME280;63883;48.996;20.804;2023-09-12T03:03:53;96546.50;;;11.73;100.00
75290;BME280;63883;48.996;20.804;2023-09-12T03:06:19;96543.22;;;11.70;100.00
75290;BME280;63883;48.996;20.804;2023-09-12T03:08:47;96551.88;;;11.66;100.00
75290;BME280;63883;48.996;20.804;2023-09-12T03:11:13;96543.38;;;11.65;100.00
75290;BME280;63883;48.996;20.804;2023-09-12T03:13:41;96546.84;;;11.63;100.00
75290;BME280;63883;48.996;20.804;2023-09-12T03:16:10;96551.13;;;11.62;100.00
75290;BME280;63883;48.996;20.804;2023-09-12T03:18:36;96549.47;;;11.60;100.00
75290;BME280;63883;48.996;20.804;2023-09-12T03:21:02;96552.94;;;11.59;100.00
75290;BME280;63883;48.996;20.804;2023-09-12T03:23:28;96536.97;;;11.52;100.00
75290;BME280;63883;48.996;20.804;2023-09-12T03:25:54;96556.44;;;11.56;100.00
75290;BME280;63883;48.996;20.804;2023-09-12T03:28:19;96548.84;;;11.53;100.00
75290;BME280;63883;48.996;20.804;2023-09-12T03:30:45;96548.97;;;11.50;100.00
75290;BME280;63883;48.996;20.804;2023-09-12T03:33:11;96556.75;;;11.46;100.00
75290;BME280;63883;48.996;20.804;2023-09-12T03:35:36;96550.06;;;11.42;100.00
75290;BME280;63883;48.996;20.804;2023-09-12T03:38:02;96552.66;;;11.40;100.00
75290;BME280;63883;48.996;20.804;2023-09-12T03:40:28;96546.00;;;11.36;100.00
75290;BME280;63883;48.996;20.804;2023-09-12T03:42:57;96555.41;;;11.34;100.00
75290;BME280;63883;48.996;20.804;2023-09-12T03:45:23;96560.56;;;11.32;100.00
75290;BME280;63883;48.996;20.804;2023-09-12T03:47:49;96554.72;;;11.29;100.00
75290;BME280;63883;48.996;20.804;2023-09-12T03:50:15;96558.16;;;11.28;100.00
75290;BME280;63883;48.996;20.804;2023-09-12T03:52:40;96558.19;;;11.26;100.00
75290;BME280;63883;48.996;20.804;2023-09-12T03:55:06;96557.41;;;11.24;100.00
75290;BME280;63883;48.996;20.804;2023-09-12T03:57:32;96562.59;;;11.23;100.00
75290;BME280;63883;48.996;20.804;2023-09-12T03:59:58;96562.63;;;11.21;100.00
75290;BME280;63883;48.996;20.804;2023-09-12T04:02:23;96563.53;;;11.19;100.00
75290;BME280;63883;48.996;20.804;2023-09-12T04:04:49;96561.13;;;11.14;100.00
75290;BME280;63883;48.996;20.804;2023-09-12T04:07:15;96552.69;;;11.12;100.00
75290;BME280;63883;48.996;20.804;2023-09-12T04:09:41;96563.03;;;11.08;100.00
75290;BME280;63883;48.996;20.804;2023-09-12T04:12:07;96560.56;;;11.05;100.00
75290;BME280;63883;48.996;20.804;2023-09-12T04:14:35;96560.66;;;11.02;100.00
75290;BME280;63883;48.996;20.804;2023-09-12T04:17:01;96564.97;;;11.00;100.00
75290;BME280;63883;48.996;20.804;2023-09-12T04:19:26;96560.81;;;10.95;100.00
75290;BME280;63883;48.996;20.804;2023-09-12T04:21:52;96565.91;;;10.95;100.00
75290;BME280;63883;48.996;20.804;2023-09-12T04:24:18;96559.19;;;10.94;100.00
75290;BME280;63883;48.996;20.804;2023-09-12T04:26:44;96563.38;;;10.95;100.00
75290;BME280;63883;48.996;20.804;2023-09-12T04:29:10;96567.59;;;10.96;100.00
75290;BME280;63883;48.996;20.804;2023-09-12T04:31:36;96568.34;;;11.00;100.00
75290;BME280;63883;48.996;20.804;2023-09-12T04:34:02;96565.78;;;11.02;100.00
75290;BME280;63883;48.996;20.804;2023-09-12T04:36:28;96571.56;;;11.07;100.00
75290;BME280;63883;48.996;20.804;2023-09-12T04:38:54;96575.69;;;11.11;100.00
75290;BME280;63883;48.996;20.804;2023-09-12T04:41:19;96573.06;;;11.14;100.00
75290;BME280;63883;48.996;20.804;2023-09-12T04:43:45;96569.47;;;11.19;100.00
75290;BME280;63883;48.996;20.804;2023-09-12T04:46:11;96581.31;;;11.22;100.00
75290;BME280;63883;48.996;20.804;2023-09-12T04:48:37;96570.13;;;11.26;100.00
75290;BME280;63883;48.996;20.804;2023-09-12T04:51:03;96573.28;;;11.34;100.00
75290;BME280;63883;48.996;20.804;2023-09-12T04:53:29;96579.09;;;11.39;100.00
75290;BME280;63883;48.996;20.804;2023-09-12T04:56:03;96582.41;;;11.43;100.00
75290;BME280;63883;48.996;20.804;2023-09-12T04:58:29;96580.56;;;11.46;100.00
75290;BME280;63883;48.996;20.804;2023-09-12T05:00:55;96577.91;;;11.51;100.00
75290;BME280;63883;48.996;20.804;2023-09-12T05:03:22;96576.81;;;11.58;100.00
75290;BME280;63883;48.996;20.804;2023-09-12T05:05:48;96574.94;;;11.63;100.00
75290;BME280;63883;48.996;20.804;2023-09-12T05:08:16;96575.69;;;11.66;100.00
75290;BME280;63883;48.996;20.804;2023-09-12T05:10:46;96568.88;;;11.67;100.00
75290;BME280;63883;48.996;20.804;2023-09-12T05:13:12;96571.28;;;11.71;100.00
75290;BME280;63883;48.996;20.804;2023-09-12T05:15:39;96577.94;;;11.77;100.00
75290;BME280;63883;48.996;20.804;2023-09-12T05:18:06;96581.06;;;11.85;100.00
75290;BME280;63883;48.996;20.804;2023-09-12T05:20:32;96576.59;;;11.92;100.00
75290;BME280;63883;48.996;20.804;2023-09-12T05:22:58;96582.31;;;12.00;100.00
75290;BME280;63883;48.996;20.804;2023-09-12T05:25:24;96581.22;;;12.07;100.00
75290;BME280;63883;48.996;20.804;2023-09-12T05:27:49;96585.19;;;12.16;100.00
75290;BME280;63883;48.996;20.804;2023-09-12T05:30:15;96582.38;;;12.23;100.00
75290;BME280;63883;48.996;20.804;2023-09-12T05:32:41;96586.28;;;12.33;100.00
75290;BME280;63883;48.996;20.804;2023-09-12T05:35:07;96582.53;;;12.43;100.00
75290;BME280;63883;48.996;20.804;2023-09-12T05:37:33;96592.47;;;12.52;100.00
75290;BME280;63883;48.996;20.804;2023-09-12T05:39:58;96580.31;;;12.58;100.00
75290;BME280;63883;48.996;20.804;2023-09-12T05:42:24;96581.72;;;12.66;100.00
75290;BME280;63883;48.996;20.804;2023-09-12T05:44:50;96572.94;;;12.73;100.00
75290;BME280;63883;48.996;20.804;2023-09-12T05:47:22;96578.69;;;12.80;100.00
75290;BME280;63883;48.996;20.804;2023-09-12T05:49:47;96581.25;;;12.80;100.00
75290;BME280;63883;48.996;20.804;2023-09-12T05:52:13;96582.47;;;12.93;100.00
75290;BME280;63883;48.996;20.804;2023-09-12T05:54:39;96577.84;;;13.03;100.00
75290;BME280;63883;48.996;20.804;2023-09-12T05:57:07;96582.31;;;13.21;100.00
75290;BME280;63883;48.996;20.804;2023-09-12T05:59:36;96582.75;;;13.32;100.00
75290;BME280;63883;48.996;20.804;2023-09-12T06:02:03;96583.34;;;13.39;100.00
75290;BME280;63883;48.996;20.804;2023-09-12T06:04:29;96581.19;;;13.50;100.00
75290;BME280;63883;48.996;20.804;2023-09-12T06:06:55;96580.84;;;13.59;100.00
75290;BME280;63883;48.996;20.804;2023-09-12T06:09:20;96572.91;;;13.65;100.00
75290;BME280;63883;48.996;20.804;2023-09-12T06:11:46;96585.22;;;13.77;100.00
75290;BME280;63883;48.996;20.804;2023-09-12T06:14:12;96584.09;;;13.84;100.00
75290;BME280;63883;48.996;20.804;2023-09-12T06:16:37;96583.78;;;13.92;100.00
75290;BME280;63883;48.996;20.804;2023-09-12T06:19:03;96585.94;;;14.02;100.00
75290;BME280;63883;48.996;20.804;2023-09-12T06:21:29;96579.50;;;14.13;100.00
75290;BME280;63883;48.996;20.804;2023-09-12T06:24:14;96584.09;;;14.26;100.00
75290;BME280;63883;48.996;20.804;2023-09-12T06:26:40;96579.94;;;14.44;100.00
75290;BME280;63883;48.996;20.804;2023-09-12T06:29:06;96585.19;;;14.61;100.00
75290;BME280;63883;48.996;20.804;2023-09-12T06:31:32;96580.06;;;14.80;100.00
75290;BME280;63883;48.996;20.804;2023-09-12T06:33:58;96581.91;;;14.97;100.00
75290;BME280;63883;48.996;20.804;2023-09-12T06:36:27;96580.44;;;15.10;100.00
75290;BME280;63883;48.996;20.804;2023-09-12T06:38:55;96582.03;;;15.31;100.00
75290;BME280;63883;48.996;20.804;2023-09-12T06:41:21;96582.53;;;15.39;100.00
75290;BME280;63883;48.996;20.804;2023-09-12T06:43:47;96577.88;;;15.47;100.00
75290;BME280;63883;48.996;20.804;2023-09-12T06:46:13;96583.91;;;15.46;100.00
75290;BME280;63883;48.996;20.804;2023-09-12T06:48:39;96574.25;;;15.51;100.00
75290;BME280;63883;48.996;20.804;2023-09-12T06:51:07;96578.94;;;15.62;100.00
75290;BME280;63883;48.996;20.804;2023-09-12T06:53:34;96573.25;;;15.73;100.00
75290;BME280;63883;48.996;20.804;2023-09-12T06:55:59;96583.94;;;15.82;100.00
75290;BME280;63883;48.996;20.804;2023-09-12T06:58:25;96580.31;;;15.86;100.00
75290;BME280;63883;48.996;20.804;2023-09-12T07:00:51;96580.28;;;16.05;100.00
75290;BME280;63883;48.996;20.804;2023-09-12T07:03:17;96579.59;;;16.19;100.00
75290;BME280;63883;48.996;20.804;2023-09-12T07:05:43;96587.00;;;16.25;100.00
75290;BME280;63883;48.996;20.804;2023-09-12T07:08:10;96577.63;;;16.41;100.00
75290;BME280;63883;48.996;20.804;2023-09-12T07:10:36;96581.16;;;16.56;100.00
75290;BME280;63883;48.996;20.804;2023-09-12T07:13:02;96577.84;;;16.71;100.00
75290;BME280;63883;48.996;20.804;2023-09-12T07:15:28;96581.44;;;16.84;100.00
75290;BME280;63883;48.996;20.804;2023-09-12T07:17:53;96590.31;;;16.94;100.00
75290;BME280;63883;48.996;20.804;2023-09-12T07:20:19;96585.28;;;17.08;100.00
75290;BME280;63883;48.996;20.804;2023-09-12T07:22:46;96576.66;;;17.25;100.00
75290;BME280;63883;48.996;20.804;2023-09-12T07:25:13;96582.88;;;17.37;100.00
75290;BME280;63883;48.996;20.804;2023-09-12T07:27:39;96581.22;;;17.51;100.00
75290;BME280;63883;48.996;20.804;2023-09-12T07:30:07;96579.84;;;17.62;100.00
75290;BME280;63883;48.996;20.804;2023-09-12T07:32:33;96582.22;;;17.80;100.00
75290;BME280;63883;48.996;20.804;2023-09-12T07:34:58;96580.66;;;17.93;100.00
75290;BME280;63883;48.996;20.804;2023-09-12T07:37:24;96584.53;;;18.01;100.00
75290;BME280;63883;48.996;20.804;2023-09-12T07:39:50;96580.28;;;18.00;100.00
75290;BME280;63883;48.996;20.804;2023-09-12T07:42:15;96575.09;;;18.15;100.00
75290;BME280;63883;48.996;20.804;2023-09-12T07:44:41;96569.84;;;18.31;100.00
75290;BME280;63883;48.996;20.804;2023-09-12T07:47:07;96572.13;;;18.51;98.01
75290;BME280;63883;48.996;20.804;2023-09-12T07:49:33;96576.84;;;18.73;98.71
75290;BME280;63883;48.996;20.804;2023-09-12T07:51:58;96570.22;;;18.83;98.69
75290;BME280;63883;48.996;20.804;2023-09-12T07:54:24;96566.63;;;19.00;98.06
75290;BME280;63883;48.996;20.804;2023-09-12T07:56:49;96564.78;;;19.16;98.71
75290;BME280;63883;48.996;20.804;2023-09-12T07:59:15;96562.72;;;19.35;98.20
75290;BME280;63883;48.996;20.804;2023-09-12T08:01:42;96571.91;;;19.54;96.69
75290;BME280;63883;48.996;20.804;2023-09-12T08:04:07;96562.56;;;19.65;96.06
75290;BME280;63883;48.996;20.804;2023-09-12T08:06:33;96566.81;;;19.93;97.27
75290;BME280;63883;48.996;20.804;2023-09-12T08:08:59;96561.66;;;20.06;92.45
75290;BME280;63883;48.996;20.804;2023-09-12T08:11:26;96562.50;;;20.19;91.68
75290;BME280;63883;48.996;20.804;2023-09-12T08:13:52;96559.31;;;20.28;89.17
75290;BME280;63883;48.996;20.804;2023-09-12T08:16:18;96564.19;;;20.33;87.57
75290;BME280;63883;48.996;20.804;2023-09-12T08:18:47;96550.84;;;20.39;90.03
75290;BME280;63883;48.996;20.804;2023-09-12T08:21:12;96560.00;;;20.57;88.50
75290;BME280;63883;48.996;20.804;2023-09-12T08:23:38;96559.28;;;20.80;90.55
75290;BME280;63883;48.996;20.804;2023-09-12T08:26:03;96557.16;;;20.98;87.21
75290;BME280;63883;48.996;20.804;2023-09-12T08:28:29;96560.06;;;21.19;86.00
75290;BME280;63883;48.996;20.804;2023-09-12T08:30:55;96561.56;;;21.47;81.27
75290;BME280;63883;48.996;20.804;2023-09-12T08:33:21;96559.88;;;21.58;80.08
75290;BME280;63883;48.996;20.804;2023-09-12T08:35:46;96552.28;;;21.79;79.43
75290;BME280;63883;48.996;20.804;2023-09-12T08:38:12;96552.56;;;21.87;76.10
75290;BME280;63883;48.996;20.804;2023-09-12T08:40:38;96558.09;;;22.06;75.77
75290;BME280;63883;48.996;20.804;2023-09-12T08:43:04;96563.09;;;22.20;76.19
75290;BME280;63883;48.996;20.804;2023-09-12T08:45:29;96564.22;;;22.29;74.30
75290;BME280;63883;48.996;20.804;2023-09-12T08:47:58;96564.72;;;22.45;75.81
75290;BME280;63883;48.996;20.804;2023-09-12T08:50:25;96562.59;;;22.50;74.42
75290;BME280;63883;48.996;20.804;2023-09-12T08:52:54;96555.25;;;22.90;76.37
75290;BME280;63883;48.996;20.804;2023-09-12T08:55:19;96557.22;;;23.20;75.51
75290;BME280;63883;48.996;20.804;2023-09-12T08:57:48;96561.66;;;23.74;71.27
75290;BME280;63883;48.996;20.804;2023-09-12T09:00:16;96555.63;;;24.37;69.05
75290;BME280;63883;48.996;20.804;2023-09-12T09:02:43;96548.91;;;24.86;66.65
75290;BME280;63883;48.996;20.804;2023-09-12T09:05:10;96550.63;;;25.37;64.41
75290;BME280;63883;48.996;20.804;2023-09-12T09:07:41;96546.19;;;25.67;63.50
75290;BME280;63883;48.996;20.804;2023-09-12T09:10:09;96544.84;;;26.02;61.52
75290;BME280;63883;48.996;20.804;2023-09-12T09:12:39;96543.06;;;26.51;60.46
75290;BME280;63883;48.996;20.804;2023-09-12T09:15:25;96537.00;;;26.87;59.68
75290;BME280;63883;48.996;20.804;2023-09-12T09:17:54;96538.19;;;27.12;57.61
75290;BME280;63883;48.996;20.804;2023-09-12T09:20:30;96533.88;;;27.20;56.51
75290;BME280;63883;48.996;20.804;2023-09-12T09:23:07;96535.50;;;27.58;54.39
75290;BME280;63883;48.996;20.804;2023-09-12T09:25:39;96533.31;;;27.54;55.24
75290;BME280;63883;48.996;20.804;2023-09-12T09:28:15;96533.13;;;27.65;54.06
75290;BME280;63883;48.996;20.804;2023-09-12T09:30:43;96534.56;;;27.50;54.35
75290;BME280;63883;48.996;20.804;2023-09-12T09:33:09;96526.75;;;27.85;54.14
75290;BME280;63883;48.996;20.804;2023-09-12T09:35:35;96529.56;;;28.10;54.71
75290;BME280;63883;48.996;20.804;2023-09-12T09:38:03;96526.97;;;28.45;51.89
75290;BME280;63883;48.996;20.804;2023-09-12T09:40:31;96530.97;;;28.57;49.91
75290;BME280;63883;48.996;20.804;2023-09-12T09:43:01;96528.78;;;29.04;48.53
75290;BME280;63883;48.996;20.804;2023-09-12T09:45:29;96524.84;;;29.00;47.82
75290;BME280;63883;48.996;20.804;2023-09-12T09:48:04;96516.09;;;29.34;47.38
75290;BME280;63883;48.996;20.804;2023-09-12T09:50:34;96520.94;;;29.46;47.85
75290;BME280;63883;48.996;20.804;2023-09-12T09:53:02;96511.63;;;29.76;47.76
75290;BME280;63883;48.996;20.804;2023-09-12T09:55:30;96517.47;;;29.96;45.30
75290;BME280;63883;48.996;20.804;2023-09-12T09:57:56;96517.47;;;30.28;44.26
75290;BME280;63883;48.996;20.804;2023-09-12T10:00:22;96516.13;;;30.57;41.53
75290;BME280;63883;48.996;20.804;2023-09-12T10:02:50;96513.78;;;30.86;41.66
75290;BME280;63883;48.996;20.804;2023-09-12T10:05:17;96509.72;;;30.59;42.35
75290;BME280;63883;48.996;20.804;2023-09-12T10:07:47;96510.97;;;30.88;41.63
75290;BME280;63883;48.996;20.804;2023-09-12T10:10:13;96505.03;;;30.94;41.78
75290;BME280;63883;48.996;20.804;2023-09-12T10:12:48;96506.78;;;31.18;40.72
75290;BME280;63883;48.996;20.804;2023-09-12T10:15:14;96504.44;;;31.62;37.08
75290;BME280;63883;48.996;20.804;2023-09-12T10:17:41;96500.53;;;31.80;37.31
75290;BME280;63883;48.996;20.804;2023-09-12T10:20:14;96496.56;;;32.45;34.57
75290;BME280;63883;48.996;20.804;2023-09-12T10:22:52;96500.09;;;31.92;35.40
75290;BME280;63883;48.996;20.804;2023-09-12T10:25:22;96494.44;;;32.26;35.50
75290;BME280;63883;48.996;20.804;2023-09-12T10:27:49;96503.47;;;32.83;34.06
75290;BME280;63883;48.996;20.804;2023-09-12T10:30:14;96495.97;;;33.02;33.67
75290;BME280;63883;48.996;20.804;2023-09-12T10:32:41;96489.16;;;32.78;32.98
75290;BME280;63883;48.996;20.804;2023-09-12T10:35:09;96487.69;;;32.90;34.16
75290;BME280;63883;48.996;20.804;2023-09-12T10:37:37;96485.47;;;33.08;33.66
75290;BME280;63883;48.996;20.804;2023-09-12T10:40:05;96482.94;;;33.00;33.88
75290;BME280;63883;48.996;20.804;2023-09-12T10:42:34;96482.25;;;33.57;31.35
75290;BME280;63883;48.996;20.804;2023-09-12T10:45:02;96487.56;;;33.42;32.20
75290;BME280;63883;48.996;20.804;2023-09-12T10:47:30;96478.63;;;33.28;31.33
75290;BME280;63883;48.996;20.804;2023-09-12T10:49:56;96482.84;;;33.23;31.73
75290;BME280;63883;48.996;20.804;2023-09-12T10:52:29;96481.81;;;33.39;30.92
75290;BME280;63883;48.996;20.804;2023-09-12T10:54:55;96478.38;;;33.09;31.61
75290;BME280;63883;48.996;20.804;2023-09-12T10:57:21;96484.88;;;33.21;31.80
75290;BME280;63883;48.996;20.804;2023-09-12T11:02:35;96477.97;;;33.56;31.10
75290;BME280;63883;48.996;20.804;2023-09-12T11:05:03;96469.25;;;33.62;30.68
75290;BME280;63883;48.996;20.804;2023-09-12T11:07:44;96474.00;;;33.30;31.31
75290;BME280;63883;48.996;20.804;2023-09-12T11:12:38;96476.78;;;34.43;28.91
75290;BME280;63883;48.996;20.804;2023-09-12T11:15:05;96468.31;;;34.61;29.27
75290;BME280;63883;48.996;20.804;2023-09-12T11:17:38;96463.28;;;34.17;29.16
75290;BME280;63883;48.996;20.804;2023-09-12T11:20:04;96455.41;;;34.52;29.67
75290;BME280;63883;48.996;20.804;2023-09-12T11:22:43;96461.66;;;34.44;27.99
75290;BME280;63883;48.996;20.804;2023-09-12T11:30:22;96458.88;;;34.80;28.49
75290;BME280;63883;48.996;20.804;2023-09-12T11:32:53;96456.75;;;34.69;28.20
75290;BME280;63883;48.996;20.804;2023-09-12T11:35:29;96460.94;;;33.65;27.20
75290;BME280;63883;48.996;20.804;2023-09-12T11:37:56;96455.78;;;33.21;28.44
75290;BME280;63883;48.996;20.804;2023-09-12T11:43:01;96449.38;;;33.87;26.23
75290;BME280;63883;48.996;20.804;2023-09-12T11:45:27;96452.44;;;34.33;26.35
75290;BME280;63883;48.996;20.804;2023-09-12T11:47:53;96460.25;;;34.20;25.89
75290;BME280;63883;48.996;20.804;2023-09-12T11:50:39;96450.50;;;34.76;26.21
75290;BME280;63883;48.996;20.804;2023-09-12T11:53:11;96441.59;;;34.91;25.68
75290;BME280;63883;48.996;20.804;2023-09-12T11:55:48;96453.81;;;34.85;25.42
75290;BME280;63883;48.996;20.804;2023-09-12T11:58:15;96445.91;;;34.64;25.42
75290;BME280;63883;48.996;20.804;2023-09-12T12:00:45;96446.03;;;34.77;25.34
75290;BME280;63883;48.996;20.804;2023-09-12T12:03:12;96436.47;;;34.89;25.46
75290;BME280;63883;48.996;20.804;2023-09-12T12:05:38;96437.97;;;34.98;26.74
75290;BME280;63883;48.996;20.804;2023-09-12T12:08:10;96436.47;;;35.30;24.65
75290;BME280;63883;48.996;20.804;2023-09-12T12:10:36;96439.72;;;35.26;24.86
75290;BME280;63883;48.996;20.804;2023-09-12T12:13:05;96432.72;;;35.18;24.72
75290;BME280;63883;48.996;20.804;2023-09-12T12:15:31;96439.41;;;35.61;24.36
75290;BME280;63883;48.996;20.804;2023-09-12T12:17:58;96422.53;;;35.15;24.34
75290;BME280;63883;48.996;20.804;2023-09-12T12:20:23;96421.78;;;35.28;24.67
75290;BME280;63883;48.996;20.804;2023-09-12T12:22:49;96427.97;;;35.68;24.92
75290;BME280;63883;48.996;20.804;2023-09-12T12:25:18;96429.56;;;34.95;24.35
75290;BME280;63883;48.996;20.804;2023-09-12T12:27:44;96435.78;;;35.76;24.62
75290;BME280;63883;48.996;20.804;2023-09-12T12:30:11;96422.19;;;35.31;24.68
75290;BME280;63883;48.996;20.804;2023-09-12T12:35:08;96422.56;;;33.18;27.55
75290;BME280;63883;48.996;20.804;2023-09-12T12:37:36;96424.94;;;33.28;28.23
75290;BME280;63883;48.996;20.804;2023-09-12T12:40:02;96424.94;;;33.85;27.95
75290;BME280;63883;48.996;20.804;2023-09-12T12:42:33;96425.97;;;34.40;26.27
75290;BME280;63883;48.996;20.804;2023-09-12T12:44:59;96418.16;;;34.60;26.07
75290;BME280;63883;48.996;20.804;2023-09-12T12:47:25;96417.56;;;34.99;25.84
75290;BME280;63883;48.996;20.804;2023-09-12T12:49:53;96420.25;;;33.87;27.19
75290;BME280;63883;48.996;20.804;2023-09-12T12:52:25;96415.88;;;34.22;27.67
75290;BME280;63883;48.996;20.804;2023-09-12T12:54:51;96420.41;;;34.63;26.09
75290;BME280;63883;48.996;20.804;2023-09-12T12:57:20;96422.22;;;34.56;26.34
75290;BME280;63883;48.996;20.804;2023-09-12T12:59:49;96419.63;;;34.34;25.77
75290;BME280;63883;48.996;20.804;2023-09-12T13:02:16;96410.91;;;34.75;25.79
75290;BME280;63883;48.996;20.804;2023-09-12T13:04:42;96413.03;;;34.58;25.72